Time;durP1;ratioP1;P1;durP2;ratioP2;P2;SDS_P1;SDS_P2;PMS_P1;PMS_P2;Temp;Humidity;BMP_temperature;BMP_pressure;BME280_temperature;BME280_humidity;BME280_pressure;Samples;Min_cycle;Max_cycle;Signal;HPM_P1;HPM_P2
2022/11/30 00:00:21;;;;;;;25.35;14.07;;;;;;;6.97;100.00;100395.00;5089182;28;20032;-28
2022/11/30 00:02:52;;;;;;;24.83;13.77;;;;;;;7.04;100.00;100391.38;5089502;28;20107;-29
2022/11/30 00:05:19;;;;;;;24.15;12.80;;;;;;;7.12;100.00;100400.25;5070886;28;20032;-32
2022/11/30 00:07:45;;;;;;;24.48;14.07;;;;;;;7.09;100.00;100398.78;5089466;28;20500;-33
2022/11/30 00:10:10;;;;;;;22.83;12.98;;;;;;;7.01;100.00;100378.50;5089424;28;20032;-29
2022/11/30 00:12:36;;;;;;;22.55;13.07;;;;;;;7.22;100.00;100390.97;5089191;28;20501;-33
2022/11/30 00:15:01;;;;;;;24.95;13.38;;;;;;;7.09;100.00;100380.22;5089186;28;20028;-29
2022/11/30 00:17:27;;;;;;;21.38;12.15;;;;;;;7.15;100.00;100392.75;5089333;28;20458;-29
2022/11/30 00:19:52;;;;;;;23.00;13.20;;;;;;;7.18;100.00;100392.34;5088870;28;20881;-29
2022/11/30 00:22:17;;;;;;;25.52;12.88;;;;;;;7.19;100.00;100403.78;5088670;28;20024;-29
2022/11/30 00:24:43;;;;;;;21.90;12.85;;;;;;;7.33;100.00;100410.03;5089285;28;20024;-29
2022/11/30 00:27:08;;;;;;;22.67;13.27;;;;;;;7.09;100.00;100387.34;5088884;28;20054;-29
2022/11/30 00:29:34;;;;;;;22.38;12.90;;;;;;;7.15;100.00;100398.03;5088893;28;20028;-33
2022/11/30 00:31:59;;;;;;;22.65;13.20;;;;;;;7.16;100.00;100391.72;5088521;28;20036;-29
2022/11/30 00:34:24;;;;;;;25.63;13.68;;;;;;;7.24;100.00;100407.50;5088739;28;20031;-28
2022/11/30 00:36:50;;;;;;;23.30;12.98;;;;;;;7.22;100.00;100396.28;5088908;28;20093;-33
2022/11/30 00:39:15;;;;;;;21.85;13.00;;;;;;;7.02;100.00;100387.28;5089154;28;20423;-29
2022/11/30 00:41:41;;;;;;;21.48;11.43;;;;;;;7.21;100.00;100392.00;5088866;28;20024;-32
2022/11/30 00:44:06;;;;;;;21.13;12.23;;;;;;;7.17;100.00;100396.03;5088163;28;20521;-29
2022/11/30 00:46:31;;;;;;;22.50;12.32;;;;;;;7.36;100.00;100394.56;5088818;28;20034;-28
2022/11/30 00:48:57;;;;;;;21.25;11.60;;;;;;;7.19;100.00;100378.09;5070328;28;20024;-28
2022/11/30 00:51:22;;;;;;;21.50;11.90;;;;;;;7.14;100.00;100374.34;5088819;28;20036;-29
2022/11/30 00:53:48;;;;;;;20.50;11.63;;;;;;;7.10;100.00;100373.09;5086605;28;20027;-31
2022/11/30 00:56:14;;;;;;;17.85;10.32;;;;;;;6.87;100.00;100367.97;5088329;28;20024;-31
2022/11/30 00:58:39;;;;;;;20.17;10.38;;;;;;;7.19;100.00;100390.50;5088167;28;20032;-35
2022/11/30 01:01:06;;;;;;;19.92;10.70;;;;;;;7.16;100.00;100372.34;5088379;28;20023;-29
2022/11/30 01:03:32;;;;;;;18.10;9.68;;;;;;;7.01;100.00;100375.06;5088535;28;20051;-31
2022/11/30 01:06:05;;;;;;;17.42;9.20;;;;;;;7.26;100.00;100385.28;5088030;28;20074;-30
2022/11/30 01:08:31;;;;;;;15.57;8.68;;;;;;;7.17;100.00;100384.56;5088302;28;20052;-30
2022/11/30 01:11:04;;;;;;;14.73;7.60;;;;;;;7.28;100.00;100397.34;5069613;28;20491;-31
2022/11/30 01:13:30;;;;;;;14.80;7.90;;;;;;;7.39;100.00;100393.38;5088246;28;20514;-31
2022/11/30 01:15:55;;;;;;;14.20;7.78;;;;;;;7.33;100.00;100389.63;5088066;28;20024;-29
2022/11/30 01:18:20;;;;;;;12.70;7.30;;;;;;;7.10;100.00;100367.78;5087795;28;20115;-29
2022/11/30 01:20:46;;;;;;;13.50;7.82;;;;;;;7.20;100.00;100390.31;5069720;28;20031;-32
2022/11/30 01:23:11;;;;;;;14.13;7.90;;;;;;;7.24;100.00;100388.13;5087913;28;20032;-33
2022/11/30 01:25:37;;;;;;;12.75;7.50;;;;;;;7.14;100.00;100377.81;5087756;28;20055;-36
2022/11/30 01:28:02;;;;;;;12.35;7.35;;;;;;;7.30;100.00;100389.22;5087644;28;20099;-29
2022/11/30 01:30:27;;;;;;;12.57;7.20;;;;;;;7.39;100.00;100394.19;5087770;28;20027;-28
2022/11/30 01:32:53;;;;;;;10.75;6.63;;;;;;;7.44;100.00;100383.84;5069132;28;20035;-29
2022/11/30 01:35:18;;;;;;;12.73;7.15;;;;;;;7.20;100.00;100386.88;5069769;28;20092;-28
2022/11/30 01:37:44;;;;;;;11.80;6.57;;;;;;;7.12;100.00;100385.16;5087577;28;20480;-31
2022/11/30 01:40:10;;;;;;;10.60;6.35;;;;;;;7.09;100.00;100385.53;5087311;28;20024;-27
2022/11/30 01:42:36;;;;;;;10.30;5.65;;;;;;;7.10;100.00;100373.09;5087433;28;20057;-30
2022/11/30 01:45:04;;;;;;;10.25;6.05;;;;;;;6.94;100.00;100368.84;5087571;28;20020;-29
2022/11/30 01:47:41;;;;;;;9.65;5.68;;;;;;;6.83;100.00;100368.31;5087066;28;20053;-28
2022/11/30 01:50:19;;;;;;;9.82;5.20;;;;;;;6.96;100.00;100393.34;5087227;28;20032;-31
2022/11/30 01:52:50;;;;;;;10.45;6.03;;;;;;;6.96;100.00;100383.53;5087157;28;20032;-29
2022/11/30 01:55:26;;;;;;;10.27;5.60;;;;;;;6.89;100.00;100381.84;5087695;28;20024;-32
2022/11/30 01:58:15;;;;;;;10.07;5.60;;;;;;;6.93;100.00;100380.47;5087206;28;20416;-29
2022/11/30 02:00:46;;;;;;;9.65;5.75;;;;;;;6.95;100.00;100365.19;5087348;28;20035;-28
2022/11/30 02:03:16;;;;;;;9.00;5.03;;;;;;;6.95;100.00;100365.19;5087338;28;20166;-33
2022/11/30 02:05:42;;;;;;;9.60;5.40;;;;;;;7.01;100.00;100377.69;5086164;28;20488;-28
2022/11/30 02:08:09;;;;;;;10.07;5.65;;;;;;;6.96;100.00;100372.13;5086442;28;20048;-29
2022/11/30 02:10:39;;;;;;;8.33;5.10;;;;;;;7.01;100.00;100385.66;5069087;28;20499;-33
2022/11/30 02:13:40;;;;;;;8.63;5.40;;;;;;;7.12;100.00;100381.69;5085665;28;20269;-33
2022/11/30 02:16:21;;;;;;;9.50;5.18;;;;;;;7.19;100.00;100383.41;5086225;28;20092;-31
2022/11/30 02:18:49;;;;;;;10.43;5.70;;;;;;;7.17;100.00;100385.41;5086783;28;20028;-32
2022/11/30 02:21:30;;;;;;;7.30;4.53;;;;;;;7.13;100.00;100378.84;5087099;28;20557;-29
2022/11/30 02:24:27;;;;;;;8.55;5.10;;;;;;;7.13;100.00;100372.69;5068671;28;20085;-29
2022/11/30 02:27:11;;;;;;;8.90;4.97;;;;;;;7.16;100.00;100372.34;5086673;28;20440;-30
2022/11/30 02:29:41;;;;;;;9.20;5.18;;;;;;;7.09;100.00;100382.03;5086848;28;20100;-32
2022/11/30 02:32:14;;;;;;;10.63;5.20;;;;;;;7.09;100.00;100372.28;5086634;28;20518;-29
2022/11/30 02:34:42;;;;;;;11.65;6.43;;;;;;;6.93;100.00;100353.94;5085340;28;20035;-28
2022/11/30 02:37:11;;;;;;;10.38;5.13;;;;;;;6.90;100.00;100367.56;5086856;28;20028;-28
2022/11/30 02:39:36;;;;;;;10.40;5.80;;;;;;;7.05;100.00;100365.72;5087025;28;20034;-29
2022/11/30 02:42:02;;;;;;;9.63;5.20;;;;;;;6.87;100.00;100344.91;5086672;28;20028;-31
2022/11/30 02:44:28;;;;;;;9.85;5.10;;;;;;;6.87;100.00;100378.56;5086946;28;20141;-28
2022/11/30 02:47:18;;;;;;;10.18;5.60;;;;;;;7.00;100.00;100378.69;5086454;28;20495;-29
2022/11/30 02:50:00;;;;;;;10.50;5.50;;;;;;;6.98;100.00;100392.13;5086734;28;20028;-33
2022/11/30 02:52:27;;;;;;;10.13;5.22;;;;;;;7.03;100.00;100380.97;5087166;28;20028;-29
2022/11/30 02:54:59;;;;;;;11.27;5.60;;;;;;;7.04;100.00;100379.97;5086665;28;20120;-34
2022/11/30 02:57:25;;;;;;;10.30;5.45;;;;;;;7.04;100.00;100388.72;5087143;28;20024;-30
2022/11/30 02:59:50;;;;;;;11.10;4.85;;;;;;;7.09;100.00;100374.09;5086999;28;20039;-29
2022/11/30 03:02:16;;;;;;;11.25;5.40;;;;;;;7.30;100.00;100381.25;5086374;28;20480;-30
2022/11/30 03:04:41;;;;;;;9.13;4.78;;;;;;;7.26;100.00;100386.09;5086414;28;20036;-31
2022/11/30 03:07:07;;;;;;;9.77;5.15;;;;;;;7.37;100.00;100374.16;5086068;28;20233;-32
2022/11/30 03:09:32;;;;;;;10.95;5.00;;;;;;;7.29;100.00;100384.91;5086886;28;20024;-32
2022/11/30 03:11:57;;;;;;;8.18;4.72;;;;;;;7.30;100.00;100392.69;5086067;28;20036;-31
2022/11/30 03:14:23;;;;;;;8.55;4.30;;;;;;;7.21;100.00;100383.19;5086343;28;20020;-33
2022/11/30 03:16:48;;;;;;;7.63;3.67;;;;;;;7.18;100.00;100381.75;5088025;28;20024;-30
2022/11/30 03:19:14;;;;;;;6.68;3.45;;;;;;;7.26;100.00;100374.69;5071809;28;20024;-30
2022/11/30 03:21:39;;;;;;;7.10;3.90;;;;;;;7.34;100.00;100407.22;5090417;28;20028;-30
2022/11/30 03:24:05;;;;;;;7.03;3.53;;;;;;;7.25;100.00;100410.97;5089873;28;20016;-33
2022/11/30 03:26:30;;;;;;;6.07;3.13;;;;;;;7.16;100.00;100404.16;5071939;28;20020;-29
2022/11/30 03:28:56;;;;;;;7.90;4.32;;;;;;;7.17;100.00;100389.88;5088537;28;20392;-30
2022/11/30 03:31:21;;;;;;;7.57;3.50;;;;;;;7.34;100.00;100401.09;5090473;28;20028;-29
2022/11/30 03:33:47;;;;;;;7.15;3.22;;;;;;;7.39;100.00;100398.66;5089627;28;20024;-35
2022/11/30 03:36:12;;;;;;;6.07;3.10;;;;;;;7.36;100.00;100407.03;5089898;28;20388;-29
2022/11/30 03:38:38;;;;;;;6.00;3.08;;;;;;;7.24;100.00;100386.28;5090024;28;20461;-32
2022/11/30 03:41:10;;;;;;;7.25;3.10;;;;;;;7.34;100.00;100414.34;5090006;28;20039;-29
2022/11/30 03:43:36;;;;;;;7.53;4.40;;;;;;;7.33;100.00;100407.38;5088488;28;20024;-28
2022/11/30 03:46:02;;;;;;;9.40;5.28;;;;;;;7.38;100.00;100407.66;5087964;28;20035;-29
2022/11/30 03:48:28;;;;;;;23.55;10.00;;;;;;;7.33;100.00;100383.50;5089598;28;20034;-28
2022/11/30 03:50:53;;;;;;;19.20;7.00;;;;;;;7.32;100.00;100392.50;5089748;28;20032;-29
2022/11/30 03:53:21;;;;;;;35.03;23.20;;;;;;;7.32;100.00;100406.56;5089812;28;20020;-29
2022/11/30 03:55:51;;;;;;;32.33;22.05;;;;;;;7.24;100.00;100396.91;5071265;28;20520;-30
2022/11/30 03:58:17;;;;;;;19.08;11.95;;;;;;;7.23;100.00;100387.31;5089331;28;20039;-33
2022/11/30 04:00:42;;;;;;;30.95;19.02;;;;;;;7.22;100.00;100409.53;5070791;28;20028;-28
2022/11/30 04:03:08;;;;;;;19.10;11.43;;;;;;;7.28;100.00;100393.88;5089991;28;20047;-29
2022/11/30 04:05:33;;;;;;;9.32;6.13;;;;;;;7.27;100.00;100406.31;5089796;28;20036;-30
2022/11/30 04:07:58;;;;;;;9.15;4.40;;;;;;;7.27;100.00;100394.88;5070652;28;20474;-29
2022/11/30 04:10:24;;;;;;;9.10;5.07;;;;;;;7.43;100.00;100402.59;5070846;28;20576;-32
2022/11/30 04:12:49;;;;;;;9.57;4.88;;;;;;;7.40;100.00;100411.75;5089231;28;20024;-29
2022/11/30 04:15:15;;;;;;;8.35;4.55;;;;;;;7.41;100.00;100415.22;5089183;28;20036;-28
2022/11/30 04:17:40;;;;;;;9.90;5.03;;;;;;;7.44;100.00;100412.19;5089261;28;20111;-29
2022/11/30 04:20:06;;;;;;;12.80;6.78;;;;;;;7.37;100.00;100422.72;5070826;28;20158;-32
2022/11/30 04:22:32;;;;;;;10.55;5.55;;;;;;;7.36;100.00;100431.72;5087762;28;20510;-29
2022/11/30 04:24:58;;;;;;;14.25;8.18;;;;;;;7.20;100.00;100419.50;5088999;28;20104;-28
2022/11/30 04:27:23;;;;;;;14.65;7.45;;;;;;;7.26;100.00;100419.78;5088579;28;20024;-37
2022/11/30 04:29:49;;;;;;;12.23;5.75;;;;;;;7.44;100.00;100434.25;5088647;28;20482;-28
2022/11/30 04:32:14;;;;;;;15.52;6.82;;;;;;;7.39;100.00;100409.28;5088898;28;20032;-29
2022/11/30 04:34:40;;;;;;;22.83;9.68;;;;;;;7.37;100.00;100413.97;5070662;28;20404;-29
2022/11/30 04:37:05;;;;;;;53.95;23.55;;;;;;;7.38;100.00;100423.56;5089302;28;20047;-29
2022/11/30 04:39:33;;;;;;;15.20;8.00;;;;;;;7.30;100.00;100407.78;5088657;28;20054;-28
2022/11/30 04:41:58;;;;;;;11.83;6.17;;;;;;;7.44;100.00;100438.75;5088826;28;20031;-31
2022/11/30 04:44:23;;;;;;;10.75;5.90;;;;;;;7.58;100.00;100437.84;5088153;28;20299;-32
2022/11/30 04:46:49;;;;;;;12.80;6.65;;;;;;;7.49;100.00;100416.94;5088426;28;20035;-29
2022/11/30 04:49:14;;;;;;;10.40;5.97;;;;;;;7.44;100.00;100412.19;5088724;28;20385;-29
2022/11/30 04:51:40;;;;;;;12.40;6.13;;;;;;;7.59;100.00;100436.03;5088592;28;20031;-30
2022/11/30 04:54:05;;;;;;;20.13;8.30;;;;;;;7.34;100.00;100417.00;5088135;28;20113;-31
2022/11/30 04:56:31;;;;;;;29.13;12.75;;;;;;;7.37;100.00;100406.00;5088388;28;20780;-28
2022/11/30 04:58:56;;;;;;;14.63;7.38;;;;;;;7.50;100.00;100438.00;5088349;28;20024;-29
2022/11/30 05:01:21;;;;;;;15.95;7.90;;;;;;;7.52;100.00;100420.03;5088182;28;20042;-30
2022/11/30 05:03:47;;;;;;;36.35;14.07;;;;;;;7.68;100.00;100429.56;5088319;28;20024;-32
2022/11/30 05:06:12;;;;;;;19.55;9.07;;;;;;;7.40;100.00;100416.25;5087763;28;20036;-29
2022/11/30 05:08:37;;;;;;;12.05;6.03;;;;;;;7.55;100.00;100440.06;5087205;28;20052;-29
2022/11/30 05:11:03;;;;;;;25.48;9.73;;;;;;;7.39;100.00;100441.94;5088077;28;20780;-29
2022/11/30 05:13:28;;;;;;;11.70;6.07;;;;;;;7.52;100.00;100443.06;5069779;28;20034;-29
2022/11/30 05:15:54;;;;;;;12.52;5.45;;;;;;;7.59;100.00;100444.78;5087831;28;20016;-32
2022/11/30 05:18:19;;;;;;;45.03;19.13;;;;;;;7.47;100.00;100448.16;5087671;28;20057;-31
2022/11/30 05:20:49;;;;;;;22.90;11.57;;;;;;;7.46;100.00;100450.00;5088009;28;20111;-32
2022/11/30 05:23:16;;;;;;;17.88;9.98;;;;;;;7.48;100.00;100455.94;5069352;28;20028;-30
2022/11/30 05:25:42;;;;;;;16.88;8.23;;;;;;;7.52;100.00;100454.53;5087946;28;20110;-29
2022/11/30 05:28:08;;;;;;;16.08;8.57;;;;;;;7.53;100.00;100463.31;5086828;28;20123;-31
2022/11/30 05:30:33;;;;;;;20.83;11.70;;;;;;;7.57;100.00;100435.38;5087966;28;20399;-28
2022/11/30 05:32:59;;;;;;;18.92;10.48;;;;;;;7.40;100.00;100432.97;5087875;28;20032;-35
2022/11/30 05:35:24;;;;;;;23.13;12.55;;;;;;;7.32;100.00;100429.63;5087626;28;20035;-29
2022/11/30 05:37:50;;;;;;;30.15;17.02;;;;;;;7.33;100.00;100433.91;5087829;28;20118;-28
2022/11/30 05:40:15;;;;;;;30.10;16.33;;;;;;;7.47;100.00;100446.31;5086908;28;20024;-28
2022/11/30 05:42:41;;;;;;;29.60;16.42;;;;;;;7.40;100.00;100458.69;5087310;28;20065;-30
2022/11/30 05:45:06;;;;;;;32.88;17.92;;;;;;;7.45;100.00;100448.34;5087295;28;20019;-29
2022/11/30 05:47:32;;;;;;;23.75;13.65;;;;;;;7.65;100.00;100467.09;5087534;28;20024;-32
2022/11/30 05:49:57;;;;;;;17.50;9.77;;;;;;;7.55;100.00;100456.00;5073572;28;20032;-31
2022/11/30 05:52:23;;;;;;;15.77;9.35;;;;;;;7.62;100.00;100473.63;5067034;28;20039;-33
2022/11/30 05:54:48;;;;;;;19.45;9.63;;;;;;;7.56;100.00;100471.72;5067228;28;20492;-29
2022/11/30 05:57:13;;;;;;;18.58;10.60;;;;;;;7.36;100.00;100452.94;5048994;28;20033;-28
2022/11/30 05:59:39;;;;;;;18.15;10.10;;;;;;;7.44;100.00;100467.94;5067005;28;20066;-29
2022/11/30 06:02:04;;;;;;;17.13;9.15;;;;;;;7.42;100.00;100451.38;5067035;28;20111;-29
2022/11/30 06:04:31;;;;;;;13.98;7.85;;;;;;;7.52;100.00;100472.28;5067119;28;20025;-31
2022/11/30 06:06:56;;;;;;;14.35;7.90;;;;;;;7.37;100.00;100474.97;5066641;28;20406;-29
2022/11/30 06:09:22;;;;;;;13.98;7.07;;;;;;;7.38;100.00;100481.94;5048763;28;20515;-30
2022/11/30 06:11:47;;;;;;;12.43;6.28;;;;;;;7.41;100.00;100485.03;5048896;28;20037;-29
2022/11/30 06:14:14;;;;;;;11.75;6.28;;;;;;;7.23;100.00;100484.63;5066370;28;20044;-28
2022/11/30 06:16:39;;;;;;;11.93;6.00;;;;;;;7.65;100.00;100473.22;5066937;28;20710;-28
2022/11/30 06:19:05;;;;;;;11.95;5.60;;;;;;;7.46;100.00;100484.50;5048448;28;20041;-30
2022/11/30 06:21:30;;;;;;;11.13;5.97;;;;;;;7.84;100.00;100502.81;5067181;28;20536;-30
2022/11/30 06:23:56;;;;;;;12.90;6.78;;;;;;;7.71;100.00;100484.13;5066658;28;20503;-29
2022/11/30 06:26:21;;;;;;;10.98;6.10;;;;;;;7.77;100.00;100501.94;5048850;28;20028;-29
2022/11/30 06:28:47;;;;;;;13.05;6.75;;;;;;;7.49;100.00;100499.19;5066256;28;20037;-31
2022/11/30 06:31:12;;;;;;;12.50;6.63;;;;;;;7.53;100.00;100488.00;5048609;28;20032;-32
2022/11/30 06:33:38;;;;;;;12.30;5.97;;;;;;;7.49;100.00;100502.66;5048616;28;20032;-29
2022/11/30 06:36:03;;;;;;;13.43;6.30;;;;;;;7.57;100.00;100501.75;5048466;28;20040;-28
2022/11/30 06:38:29;;;;;;;14.02;8.10;;;;;;;7.67;100.00;100496.94;5066556;28;20162;-31
2022/11/30 06:41:03;;;;;;;13.27;7.93;;;;;;;7.68;100.00;100508.38;5048330;28;20035;-29
2022/11/30 06:43:32;;;;;;;14.65;8.32;;;;;;;7.67;100.00;100512.06;5067174;28;20173;-31
2022/11/30 06:45:58;;;;;;;25.77;13.07;;;;;;;7.38;100.00;100492.56;5066344;28;20033;-30
2022/11/30 06:48:23;;;;;;;31.38;15.10;;;;;;;7.57;100.00;100513.16;5066514;28;20036;-28
2022/11/30 06:50:48;;;;;;;17.55;9.50;;;;;;;7.61;100.00;100493.19;5066682;28;20024;-29
2022/11/30 06:53:14;;;;;;;26.65;11.68;;;;;;;7.64;100.00;100500.81;5070636;28;20025;-28
2022/11/30 06:55:40;;;;;;;13.85;7.88;;;;;;;7.77;100.00;100486.81;5052079;28;20034;-30
2022/11/30 06:58:09;;;;;;;15.52;7.55;;;;;;;7.91;100.00;100513.53;5070354;28;20844;-31
2022/11/30 07:00:35;;;;;;;15.07;7.55;;;;;;;7.69;100.00;100502.06;5070408;28;20036;-38
2022/11/30 07:03:01;;;;;;;16.42;7.85;;;;;;;7.62;100.00;100500.16;5052429;28;20032;-28
2022/11/30 07:05:27;;;;;;;14.98;8.23;;;;;;;7.63;100.00;100509.75;5070134;28;20025;-31
2022/11/30 07:07:53;;;;;;;14.43;7.40;;;;;;;7.76;100.00;100510.91;5051977;28;20401;-32
2022/11/30 07:10:18;;;;;;;21.77;10.65;;;;;;;7.83;100.00;100519.78;5051763;28;20071;-32
2022/11/30 07:12:44;;;;;;;25.00;11.50;;;;;;;7.76;100.00;100510.91;5070356;28;20033;-31
2022/11/30 07:15:10;;;;;;;18.60;8.98;;;;;;;7.70;100.00;100516.97;5070398;28;20024;-29
2022/11/30 07:17:35;;;;;;;18.75;10.15;;;;;;;7.67;100.00;100496.13;5069941;28;20670;-32
2022/11/30 07:20:01;;;;;;;16.95;9.18;;;;;;;7.91;100.00;100521.50;5069866;28;20027;-28
2022/11/30 07:22:26;;;;;;;17.13;9.57;;;;;;;7.90;100.00;100502.06;5070171;28;20039;-28
2022/11/30 07:27:46;;;;;;;14.90;7.47;;;;;;;8.05;100.00;100518.75;5032050;28;20052;-29
2022/11/30 07:30:12;;;;;;;12.60;6.63;;;;;;;7.91;100.00;100535.56;5051523;28;20020;-30
2022/11/30 07:32:38;;;;;;;12.50;7.10;;;;;;;7.69;100.00;100528.63;5051657;28;20093;-29
2022/11/30 07:35:03;;;;;;;12.88;6.57;;;;;;;7.82;100.00;100526.06;5069992;28;20526;-30
2022/11/30 07:37:29;;;;;;;10.77;5.28;;;;;;;7.68;100.00;100529.63;5067614;28;20032;-34
2022/11/30 07:39:54;;;;;;;12.02;6.40;;;;;;;7.68;100.00;100530.44;5051882;28;20020;-30
2022/11/30 07:42:21;;;;;;;12.55;6.30;;;;;;;7.77;100.00;100528.50;5051350;28;20441;-31
2022/11/30 07:44:47;;;;;;;11.13;6.30;;;;;;;7.51;100.00;100534.34;5069597;28;20025;-30
2022/11/30 07:47:12;;;;;;;12.57;6.93;;;;;;;7.59;100.00;100537.69;5051426;28;20029;-29
2022/11/30 07:49:38;;;;;;;14.02;6.82;;;;;;;7.55;100.00;100517.84;5069687;28;20405;-28
2022/11/30 07:52:04;;;;;;;14.07;7.97;;;;;;;7.81;100.00;100545.69;5068985;28;20024;-32
2022/11/30 07:54:30;;;;;;;12.30;6.50;;;;;;;7.67;100.00;100512.06;5069301;28;20025;-29
2022/11/30 07:56:55;;;;;;;13.07;7.28;;;;;;;7.57;100.00;100525.63;5051417;28;20029;-31
2022/11/30 07:59:20;;;;;;;13.43;7.68;;;;;;;7.64;100.00;100535.31;5069413;28;20107;-29
2022/11/30 08:01:46;;;;;;;14.30;8.25;;;;;;;7.51;100.00;100519.22;5069586;28;20032;-31
2022/11/30 08:04:12;;;;;;;18.58;10.00;;;;;;;7.37;100.00;100530.69;5049501;28;20503;-29
2022/11/30 08:06:38;;;;;;;15.73;8.77;;;;;;;7.51;100.00;100540.47;5068371;28;20110;-28
2022/11/30 08:09:04;;;;;;;15.60;8.02;;;;;;;7.54;100.00;100529.50;5069088;28;20028;-28
2022/11/30 08:11:33;;;;;;;15.15;8.38;;;;;;;7.39;100.00;100526.03;5068902;28;20131;-31
2022/11/30 08:14:00;;;;;;;15.30;9.00;;;;;;;7.42;100.00;100520.38;5050496;28;20033;-31
2022/11/30 08:16:27;;;;;;;17.83;9.85;;;;;;;7.64;100.00;100545.09;5050537;28;20050;-31
2022/11/30 08:18:55;;;;;;;19.00;10.77;;;;;;;7.36;100.00;100523.78;5068856;28;20025;-29
2022/11/30 08:21:21;;;;;;;14.30;7.88;;;;;;;7.35;100.00;100546.00;5050333;28;20040;-30
2022/11/30 08:23:52;;;;;;;17.73;8.43;;;;;;;7.49;100.00;100546.97;5050592;28;20101;-29
2022/11/30 08:26:18;;;;;;;15.05;7.45;;;;;;;7.48;100.00;100550.63;5068667;28;20689;-28
2022/11/30 08:28:45;;;;;;;13.02;7.18;;;;;;;7.51;100.00;100548.41;5068559;28;20048;-32
2022/11/30 08:31:17;;;;;;;14.38;7.53;;;;;;;7.49;100.00;100544.31;5068992;28;20031;-28
2022/11/30 08:33:43;;;;;;;60.92;33.15;;;;;;;7.55;100.00;100540.91;5050091;28;20452;-30
2022/11/30 08:36:16;;;;;;;18.60;9.70;;;;;;;7.31;100.00;100524.31;5050132;28;20113;-28
2022/11/30 08:38:43;;;;;;;12.38;5.65;;;;;;;7.50;100.00;100543.28;5050342;28;20024;-30
2022/11/30 08:41:11;;;;;;;8.05;4.32;;;;;;;7.30;100.00;100537.78;5068576;28;20028;-29
2022/11/30 08:43:37;;;;;;;11.90;6.38;;;;;;;7.42;100.00;100523.84;5068342;28;20028;-31
2022/11/30 08:46:04;;;;;;;33.72;18.30;;;;;;;7.39;100.00;100508.28;5050141;28;20037;-30
2022/11/30 08:48:29;;;;;;;31.65;16.98;;;;;;;7.63;100.00;100528.34;5067945;28;20024;-30
2022/11/30 08:51:06;;;;;;;15.27;7.85;;;;;;;7.61;100.00;100522.41;5068392;28;20777;-28
2022/11/30 08:53:33;;;;;;;27.02;14.90;;;;;;;7.61;100.00;100514.44;5050122;28;20652;-36
2022/11/30 08:56:04;;;;;;;47.75;25.55;;;;;;;7.61;100.00;100529.56;5067828;28;20043;-31
2022/11/30 08:58:33;;;;;;;16.33;8.02;;;;;;;7.60;100.00;100525.25;5049650;28;20036;-30
2022/11/30 09:01:25;;;;;;;10.20;5.35;;;;;;;7.58;100.00;100525.44;5067973;28;20097;-28
2022/11/30 09:03:53;;;;;;;32.35;16.30;;;;;;;7.50;100.00;100516.75;5065054;28;20056;-29
2022/11/30 09:06:22;;;;;;;9.50;4.70;;;;;;;7.61;100.00;100522.41;5067529;28;20098;-29
2022/11/30 09:08:49;;;;;;;16.98;8.60;;;;;;;7.62;100.00;100513.44;5067851;28;20024;-29
2022/11/30 09:11:24;;;;;;;7.68;3.75;;;;;;;7.50;100.00;100520.25;5067812;28;20035;-29
2022/11/30 09:13:51;;;;;;;7.25;3.42;;;;;;;7.50;100.00;100522.06;5067606;28;20060;-30
2022/11/30 09:16:18;;;;;;;6.15;2.90;;;;;;;7.52;100.00;100525.34;5049782;28;20097;-30
2022/11/30 09:18:44;;;;;;;5.45;2.60;;;;;;;7.36;100.00;100511.31;5049428;28;20447;-27
2022/11/30 09:21:12;;;;;;;6.40;3.22;;;;;;;7.29;100.00;100498.97;5049556;28;20024;-30
2022/11/30 09:23:38;;;;;;;6.22;2.75;;;;;;;7.37;100.00;100517.44;5049634;28;20460;-29
2022/11/30 09:26:08;;;;;;;5.53;2.80;;;;;;;7.32;100.00;100503.94;5067533;28;20038;-28
2022/11/30 09:28:34;;;;;;;4.90;2.50;;;;;;;7.39;100.00;100504.81;5067670;28;20028;-30
2022/11/30 09:31:04;;;;;;;6.55;2.33;;;;;;;7.57;100.00;100512.34;5067297;28;20166;-31
2022/11/30 09:33:30;;;;;;;5.70;2.80;;;;;;;7.60;100.00;100523.44;5049265;28;20033;-29
2022/11/30 09:35:57;;;;;;;6.93;2.60;;;;;;;7.30;100.00;100512.06;5067449;28;20040;-28
2022/11/30 09:38:22;;;;;;;21.00;13.77;;;;;;;7.22;100.00;100502.38;5049130;28;20499;-30
2022/11/30 09:40:54;;;;;;;9.98;5.57;;;;;;;7.35;100.00;100514.97;5049256;28;20125;-32
2022/11/30 09:43:27;;;;;;;6.72;3.10;;;;;;;7.44;100.00;100510.38;5049374;28;20114;-30
2022/11/30 09:45:58;;;;;;;6.00;2.67;;;;;;;7.44;100.00;100502.44;5067333;28;20132;-29
2022/11/30 09:48:46;;;;;;;6.50;2.75;;;;;;;7.45;100.00;100517.31;5048942;28;20056;-31
2022/11/30 09:51:22;;;;;;;5.18;2.72;;;;;;;7.26;100.00;100500.19;5036575;28;20040;-28
2022/11/30 09:53:55;;;;;;;5.07;2.53;;;;;;;7.39;100.00;100510.09;5066999;28;20496;-27
2022/11/30 09:56:34;;;;;;;5.82;2.17;;;;;;;7.43;100.00;100506.06;5066767;28;20028;-28
2022/11/30 09:59:12;;;;;;;7.00;2.90;;;;;;;7.39;100.00;100497.66;5066939;28;20408;-29
2022/11/30 10:01:38;;;;;;;6.20;2.63;;;;;;;7.42;100.00;100504.44;5067193;28;20050;-29
2022/11/30 10:04:05;;;;;;;7.40;2.90;;;;;;;7.47;100.00;100502.03;5066528;28;20056;-34
2022/11/30 10:06:52;;;;;;;7.05;3.28;;;;;;;7.49;100.00;100500.03;5048699;28;20389;-28
2022/11/30 10:09:33;;;;;;;5.05;2.60;;;;;;;7.55;100.00;100503.75;5066757;28;20109;-29
2022/11/30 10:12:16;;;;;;;6.35;3.67;;;;;;;7.49;100.00;100497.38;5048644;28;20113;-29
2022/11/30 10:15:06;;;;;;;8.23;4.60;;;;;;;7.56;100.00;100500.94;5066692;28;20492;-29
2022/11/30 10:18:05;;;;;;;6.78;3.05;;;;;;;7.59;100.00;100502.38;5066698;28;20039;-39
2022/11/30 10:20:39;;;;;;;6.70;3.55;;;;;;;7.64;100.00;100505.28;5066805;28;20056;-28
2022/11/30 10:23:20;;;;;;;7.55;4.22;;;;;;;7.58;100.00;100506.88;5066820;28;20454;-28
2022/11/30 10:26:05;;;;;;;8.20;4.38;;;;;;;7.54;100.00;100500.28;5066250;28;20043;-30
2022/11/30 10:28:41;;;;;;;13.90;6.15;;;;;;;7.41;100.00;100497.47;5048631;28;20029;-30
2022/11/30 10:31:11;;;;;;;19.92;9.00;;;;;;;7.57;100.00;100497.25;5048586;28;20170;-27
2022/11/30 10:33:44;;;;;;;8.13;4.30;;;;;;;7.44;100.00;100505.09;5066612;28;20028;-29
2022/11/30 10:36:33;;;;;;;7.22;3.67;;;;;;;7.33;100.00;100497.59;5066247;28;20028;-30
2022/11/30 10:39:03;;;;;;;22.02;13.55;;;;;;;7.36;100.00;100508.66;5067181;28;20032;-29
2022/11/30 10:41:34;;;;;;;55.50;35.72;;;;;;;7.23;100.00;100480.16;5066503;28;20032;-30
2022/11/30 10:44:22;;;;;;;32.67;22.55;;;;;;;7.38;100.00;100503.19;5066460;28;20047;-32
2022/11/30 10:47:22;;;;;;;19.80;14.90;;;;;;;7.40;100.00;100491.34;5066477;28;20063;-32
2022/11/30 10:49:49;;;;;;;13.10;6.45;;;;;;;7.46;100.00;100503.06;5022720;28;20492;-32
2022/11/30 10:52:18;;;;;;;12.80;6.20;;;;;;;7.31;100.00;100481.03;5066371;28;20040;-29
2022/11/30 10:54:44;;;;;;;11.52;6.43;;;;;;;7.48;100.00;100502.84;5065042;28;20111;-29
2022/11/30 10:57:09;;;;;;;14.15;7.45;;;;;;;7.49;100.00;100500.03;5066454;28;20111;-31
2022/11/30 10:59:41;;;;;;;13.63;7.32;;;;;;;7.58;100.00;100512.19;5066346;28;20033;-30
2022/11/30 11:02:41;;;;;;;13.57;8.15;;;;;;;7.76;100.00;100500.28;5066192;28;20086;-29
2022/11/30 11:05:11;;;;;;;13.20;7.53;;;;;;;7.61;100.00;100503.81;5066131;28;20085;-29
2022/11/30 11:07:48;;;;;;;11.90;7.05;;;;;;;7.76;100.00;100489.66;5066395;28;20053;-28
2022/11/30 11:10:33;;;;;;;9.68;5.63;;;;;;;7.67;100.00;100498.78;5048067;28;20027;-30
2022/11/30 11:12:59;;;;;;;9.63;5.53;;;;;;;7.61;100.00;100482.59;5066617;28;20035;-33
2022/11/30 11:15:26;;;;;;;10.93;5.90;;;;;;;7.38;100.00;100497.88;5066111;28;20036;-29
2022/11/30 11:18:10;;;;;;;13.48;6.97;;;;;;;7.41;100.00;100476.25;5066295;28;20043;-32
2022/11/30 11:20:42;;;;;;;14.52;7.30;;;;;;;7.64;100.00;100502.63;5066475;28;20135;-28
2022/11/30 11:23:41;;;;;;;10.95;5.82;;;;;;;7.64;100.00;100498.16;5048109;28;20470;-28
2022/11/30 11:26:21;;;;;;;10.00;5.43;;;;;;;7.56;100.00;100500.09;5047828;28;20188;-29